Time;durP1;ratioP1;P1;durP2;ratioP2;P2;SDS_P1;SDS_P2;PMS_P1;PMS_P2;Temp;Humidity;BMP_temperature;BMP_pressure;BME280_temperature;BME280_humidity;BME280_pressure;Samples;Min_cycle;Max_cycle;Signal;HPM_P1;HPM_P2
2022/02/20 00:01:24;;;;;;;20.67;4.63;;;;;;;4.29;100.00;100816.50;5070920;28;20455;-74
2022/02/20 00:03:49;;;;;;;18.88;3.60;;;;;;;4.26;100.00;100809.44;5071025;28;20031;-74
2022/02/20 00:06:14;;;;;;;22.48;4.30;;;;;;;4.15;100.00;100830.06;5070640;28;20030;-74
2022/02/20 00:08:40;;;;;;;17.52;3.78;;;;;;;4.13;100.00;100831.72;5070282;28;20040;-74
2022/02/20 00:11:06;;;;;;;20.75;3.63;;;;;;;4.18;100.00;100851.09;5071112;28;20081;-74
2022/02/20 00:13:31;;;;;;;18.92;3.60;;;;;;;4.09;100.00;100856.03;5070737;28;20060;-74
2022/02/20 00:15:57;;;;;;;21.23;3.15;;;;;;;4.05;100.00;100867.25;5070285;28;20028;-73
2022/02/20 00:18:22;;;;;;;19.92;3.40;;;;;;;4.17;100.00;100857.16;5070747;28;20021;-75
2022/02/20 00:20:49;;;;;;;20.30;3.40;;;;;;;4.18;100.00;100855.44;5070695;28;20031;-74
2022/02/20 00:23:18;;;;;;;19.88;3.25;;;;;;;4.07;100.00;100883.88;5070574;28;20040;-74
2022/02/20 00:25:45;;;;;;;16.92;3.20;;;;;;;4.11;100.00;100890.09;5070610;28;20103;-74
2022/02/20 00:28:11;;;;;;;17.77;3.35;;;;;;;4.17;100.00;100888.53;5070524;28;20094;-74
2022/02/20 00:30:37;;;;;;;20.55;3.28;;;;;;;4.11;100.00;100897.94;5070637;28;20035;-73
2022/02/20 00:33:02;;;;;;;19.30;3.42;;;;;;;4.11;100.00;100916.25;5071014;28;20391;-74
2022/02/20 00:35:29;;;;;;;18.45;3.50;;;;;;;4.15;100.00;100905.94;5070340;28;20450;-74
2022/02/20 00:37:55;;;;;;;17.38;3.30;;;;;;;4.11;100.00;100909.28;5070361;28;20042;-74
2022/02/20 00:40:21;;;;;;;14.50;3.00;;;;;;;4.12;100.00;100918.94;5069877;28;20091;-75
2022/02/20 00:42:47;;;;;;;18.52;3.30;;;;;;;4.07;100.00;100912.66;5070718;28;20036;-74
2022/02/20 00:45:13;;;;;;;17.00;3.10;;;;;;;4.18;100.00;100913.00;5070053;28;20025;-73
2022/02/20 00:47:38;;;;;;;16.33;3.20;;;;;;;4.13;100.00;100931.16;5067371;28;20020;-74
2022/02/20 00:50:04;;;;;;;17.20;3.47;;;;;;;4.12;100.00;100936.34;5070261;28;20036;-74
2022/02/20 00:52:29;;;;;;;17.08;3.33;;;;;;;4.00;100.00;100937.75;5070467;28;20040;-76
2022/02/20 00:54:55;;;;;;;12.52;2.75;;;;;;;4.04;100.00;100949.19;5068971;28;20024;-74
2022/02/20 00:57:21;;;;;;;16.55;2.97;;;;;;;4.05;100.00;100956.19;5070429;28;20012;-74
2022/02/20 00:59:47;;;;;;;18.42;3.00;;;;;;;4.10;100.00;100957.22;5070462;28;20490;-74
2022/02/20 01:02:12;;;;;;;16.10;3.00;;;;;;;4.01;100.00;100952.56;5070616;28;20025;-74
2022/02/20 01:04:37;;;;;;;20.20;3.33;;;;;;;3.96;100.00;100943.72;5070167;28;20459;-74
2022/02/20 01:07:03;;;;;;;17.23;3.25;;;;;;;3.98;100.00;100949.00;5070436;28;20032;-75
2022/02/20 01:09:29;;;;;;;20.13;3.80;;;;;;;4.05;100.00;100958.81;5070076;28;20036;-74
2022/02/20 01:11:54;;;;;;;17.25;3.60;;;;;;;4.04;100.00;100957.03;5071643;28;20553;-74
2022/02/20 01:14:20;;;;;;;20.08;3.40;;;;;;;3.99;100.00;100964.72;5074241;28;20055;-74
2022/02/20 01:16:45;;;;;;;18.05;3.53;;;;;;;3.92;100.00;100982.81;5072391;28;20135;-74
2022/02/20 01:19:11;;;;;;;19.65;3.63;;;;;;;3.93;100.00;100974.09;5073958;28;20032;-74
2022/02/20 01:21:36;;;;;;;18.10;3.55;;;;;;;3.91;100.00;100966.19;5073989;28;20536;-73
2022/02/20 01:24:02;;;;;;;18.20;3.30;;;;;;;3.83;100.00;100972.91;5073933;28;20028;-74
2022/02/20 01:26:27;;;;;;;17.38;3.60;;;;;;;3.94;100.00;100975.88;5073424;28;20024;-74
2022/02/20 01:28:52;;;;;;;18.48;3.95;;;;;;;3.93;100.00;100992.41;5074197;28;20078;-74
2022/02/20 01:31:18;;;;;;;17.63;3.50;;;;;;;4.01;100.00;100983.09;5073657;28;20025;-74
2022/02/20 01:33:43;;;;;;;18.17;3.67;;;;;;;3.92;100.00;100991.53;5073908;28;20079;-75
2022/02/20 01:36:08;;;;;;;17.08;3.45;;;;;;;3.87;100.00;100982.63;5070908;28;20542;-74
2022/02/20 01:38:34;;;;;;;18.17;3.38;;;;;;;3.84;100.00;100999.13;5072394;28;20067;-75
2022/02/20 01:41:00;;;;;;;17.48;3.40;;;;;;;3.81;100.00;101006.84;5073565;28;20055;-74
2022/02/20 01:43:25;;;;;;;17.23;3.17;;;;;;;3.78;100.00;101004.13;5073592;28;20040;-74
2022/02/20 01:45:51;;;;;;;14.57;3.10;;;;;;;3.80;100.00;101005.06;5072683;28;20024;-74
2022/02/20 01:48:16;;;;;;;15.82;2.90;;;;;;;3.88;100.00;101007.94;5073727;28;20062;-75
2022/02/20 01:50:42;;;;;;;18.88;3.35;;;;;;;3.78;100.00;101022.41;5073181;28;20039;-74
2022/02/20 01:53:08;;;;;;;18.10;3.05;;;;;;;3.80;100.00;101019.84;5073403;28;20382;-75
2022/02/20 01:55:34;;;;;;;21.05;3.72;;;;;;;3.68;100.00;101041.25;5073063;28;20506;-74
2022/02/20 01:57:59;;;;;;;14.77;3.05;;;;;;;3.69;100.00;101031.69;5073117;28;20063;-74
2022/02/20 02:00:25;;;;;;;15.85;2.90;;;;;;;3.73;100.00;101021.38;5073123;28;20035;-74
2022/02/20 02:02:50;;;;;;;16.83;3.42;;;;;;;3.76;100.00;101024.09;5073821;28;20020;-74
2022/02/20 02:05:16;;;;;;;18.30;3.55;;;;;;;3.67;100.00;101023.78;5072667;28;20375;-74
2022/02/20 02:07:42;;;;;;;20.45;3.22;;;;;;;3.60;100.00;101016.56;5073567;28;20028;-74
2022/02/20 02:10:08;;;;;;;19.60;3.30;;;;;;;3.59;100.00;101025.25;5073102;28;20032;-74
2022/02/20 02:12:35;;;;;;;17.52;3.28;;;;;;;3.53;100.00;101019.78;5072783;28;20476;-74
2022/02/20 02:15:07;;;;;;;20.45;3.30;;;;;;;3.50;100.00;101015.34;5072587;28;20032;-76
2022/02/20 02:17:33;;;;;;;17.63;3.15;;;;;;;3.47;100.00;101010.88;5071862;28;20090;-74
2022/02/20 02:19:59;;;;;;;20.02;3.20;;;;;;;3.46;100.00;101014.31;5072644;28;20068;-74
2022/02/20 02:22:26;;;;;;;19.00;3.30;;;;;;;3.46;100.00;101030.00;5072647;28;20025;-74
2022/02/20 02:24:53;;;;;;;19.85;3.00;;;;;;;3.51;100.00;101030.19;5072425;28;20091;-74
2022/02/20 02:27:19;;;;;;;17.42;2.78;;;;;;;3.47;100.00;101010.00;5072898;28;20035;-75
2022/02/20 02:29:46;;;;;;;16.90;2.80;;;;;;;3.46;100.00;101016.94;5072884;28;20021;-76
2022/02/20 02:32:12;;;;;;;19.35;2.70;;;;;;;3.47;100.00;101016.13;5072801;28;20033;-76
2022/02/20 02:34:42;;;;;;;19.02;2.90;;;;;;;3.53;100.00;101014.56;5072364;28;20024;-76
2022/02/20 02:37:08;;;;;;;20.90;3.13;;;;;;;3.43;100.00;101008.13;5072421;28;20521;-76
2022/02/20 02:39:33;;;;;;;19.13;2.70;;;;;;;3.43;100.00;101019.44;5072735;28;20024;-76
2022/02/20 02:41:59;;;;;;;15.73;2.67;;;;;;;3.37;100.00;101019.22;5071900;28;20048;-76
2022/02/20 02:44:25;;;;;;;19.50;3.00;;;;;;;3.33;100.00;101025.19;5072285;28;20505;-76
2022/02/20 02:46:50;;;;;;;16.92;3.13;;;;;;;3.28;100.00;101016.28;5072022;28;20119;-77
2022/02/20 02:49:16;;;;;;;21.27;3.35;;;;;;;3.24;100.00;101011.78;5071972;28;20375;-76
2022/02/20 02:51:41;;;;;;;19.27;3.40;;;;;;;3.21;100.00;101023.00;5072043;28;20068;-76
2022/02/20 02:54:09;;;;;;;21.33;3.30;;;;;;;3.21;100.00;101014.28;5072723;28;20016;-76
2022/02/20 02:56:35;;;;;;;18.70;3.20;;;;;;;3.16;100.00;101002.75;5071630;28;20028;-77
2022/02/20 02:59:01;;;;;;;20.20;3.22;;;;;;;3.21;100.00;101002.09;5071806;28;20032;-78
2022/02/20 03:01:27;;;;;;;21.33;3.30;;;;;;;3.16;100.00;101000.16;5071888;28;20417;-78
2022/02/20 03:03:52;;;;;;;18.75;3.63;;;;;;;3.12;100.00;100999.16;5071900;28;20107;-76
2022/02/20 03:06:18;;;;;;;21.42;3.72;;;;;;;3.06;100.00;101006.75;5071807;28;20031;-75
2022/02/20 03:08:43;;;;;;;19.95;3.80;;;;;;;3.05;100.00;101010.22;5070543;28;20028;-74
2022/02/20 03:11:08;;;;;;;22.35;4.00;;;;;;;3.02;100.00;100995.31;5071612;28;20028;-75
2022/02/20 03:13:36;;;;;;;17.67;4.00;;;;;;;2.95;100.00;100998.53;5071696;28;20104;-74
2022/02/20 03:16:03;;;;;;;19.02;4.63;;;;;;;2.99;100.00;101020.44;5069998;28;20483;-75
2022/02/20 03:18:31;;;;;;;21.73;5.03;;;;;;;2.91;100.00;101013.19;5071521;28;20490;-75
2022/02/20 03:20:58;;;;;;;22.25;5.85;;;;;;;2.92;100.00;101003.63;5071519;28;20119;-75
2022/02/20 03:23:24;;;;;;;20.73;5.65;;;;;;;2.90;100.00;101020.97;5071613;28;20025;-75
2022/02/20 03:25:49;;;;;;;20.02;6.60;;;;;;;2.76;100.00;101003.03;5071136;28;20040;-75
2022/02/20 03:28:15;;;;;;;22.83;7.28;;;;;;;2.71;100.00;100999.38;5071451;28;20110;-75
2022/02/20 03:30:40;;;;;;;24.27;7.40;;;;;;;2.65;100.00;100996.53;5070061;28;20037;-75
2022/02/20 03:33:06;;;;;;;24.00;8.30;;;;;;;2.63;100.00;100994.69;5071289;28;20032;-75
2022/02/20 03:35:31;;;;;;;26.50;10.25;;;;;;;2.59;100.00;100986.72;5069356;28;20119;-76
2022/02/20 03:37:57;;;;;;;24.58;9.77;;;;;;;2.61;100.00;100972.00;5071465;28;20025;-74
2022/02/20 03:40:22;;;;;;;26.00;11.13;;;;;;;2.60;100.00;100974.56;5071129;28;21093;-75
2022/02/20 03:42:48;;;;;;;25.00;10.77;;;;;;;2.59;100.00;100951.88;5071131;28;20459;-75
2022/02/20 03:45:13;;;;;;;26.58;10.77;;;;;;;2.51;100.00;100954.22;5070977;28;20024;-74
2022/02/20 03:47:39;;;;;;;28.30;11.88;;;;;;;2.49;100.00;100949.75;5071002;28;20107;-75
2022/02/20 03:50:05;;;;;;;25.52;11.13;;;;;;;2.44;100.00;100950.47;5071622;28;20521;-74
2022/02/20 03:52:31;;;;;;;25.65;11.55;;;;;;;2.46;100.00;100955.75;5067625;28;20032;-74
2022/02/20 03:54:57;;;;;;;27.15;11.93;;;;;;;2.48;100.00;100958.44;5070911;28;20025;-75
2022/02/20 03:57:22;;;;;;;26.10;12.00;;;;;;;2.47;100.00;100954.03;5071053;28;20031;-74
2022/02/20 03:59:48;;;;;;;27.23;12.60;;;;;;;2.49;100.00;100955.88;5071086;28;20081;-74
2022/02/20 04:02:13;;;;;;;26.67;12.25;;;;;;;2.49;100.00;100949.75;5071240;28;20464;-74
2022/02/20 04:04:38;;;;;;;27.05;12.60;;;;;;;2.50;100.00;100941.09;5070752;28;20082;-76
2022/02/20 04:07:04;;;;;;;26.50;12.57;;;;;;;2.52;100.00;100940.34;5069354;28;20446;-74
2022/02/20 04:09:29;;;;;;;26.58;12.77;;;;;;;2.54;100.00;100941.28;5071047;28;20530;-75
2022/02/20 04:11:54;;;;;;;27.90;12.20;;;;;;;2.57;100.00;100943.13;5070540;28;20024;-75
2022/02/20 04:14:20;;;;;;;29.23;13.43;;;;;;;2.56;100.00;100941.34;5070741;28;20028;-75
2022/02/20 04:16:45;;;;;;;26.15;12.10;;;;;;;2.59;100.00;100931.91;5070844;28;20031;-74
2022/02/20 04:19:10;;;;;;;26.25;12.65;;;;;;;2.57;100.00;100938.78;5069457;28;20433;-75
2022/02/20 04:21:36;;;;;;;27.63;13.77;;;;;;;2.58;100.00;100937.09;5070651;28;20078;-75
2022/02/20 04:24:01;;;;;;;28.05;13.80;;;;;;;2.57;100.00;100924.84;5071182;28;20035;-75
2022/02/20 04:26:27;;;;;;;26.85;13.95;;;;;;;2.59;100.00;100923.19;5069937;28;20467;-75
2022/02/20 04:28:52;;;;;;;28.80;13.70;;;;;;;2.63;100.00;100912.03;5070600;28;20147;-75
2022/02/20 04:31:18;;;;;;;27.50;12.95;;;;;;;2.67;100.00;100897.38;5070834;28;20471;-74
2022/02/20 04:33:45;;;;;;;29.08;14.05;;;;;;;2.64;100.00;100894.66;5070639;28;20037;-75
2022/02/20 04:36:11;;;;;;;28.40;13.30;;;;;;;2.67;100.00;100890.44;5070230;28;20013;-74
2022/02/20 04:38:37;;;;;;;29.08;13.57;;;;;;;2.65;100.00;100893.81;5069136;28;20031;-75
2022/02/20 04:41:02;;;;;;;28.85;13.75;;;;;;;2.65;100.00;100885.97;5070280;28;20044;-75
2022/02/20 04:43:28;;;;;;;26.88;12.70;;;;;;;2.72;100.00;100878.44;5070532;28;20119;-74
2022/02/20 04:45:53;;;;;;;28.95;13.13;;;;;;;2.75;100.00;100870.72;5069248;28;20029;-75
2022/02/20 04:48:18;;;;;;;27.15;12.45;;;;;;;2.76;100.00;100862.03;5074708;28;20024;-75
2022/02/20 04:50:44;;;;;;;28.83;13.02;;;;;;;2.82;100.00;100850.06;5074861;28;20028;-75
2022/02/20 04:53:10;;;;;;;27.42;12.10;;;;;;;2.84;100.00;100837.94;5074327;28;20028;-74
2022/02/20 04:55:35;;;;;;;28.38;12.43;;;;;;;2.85;100.00;100829.28;5074392;28;20021;-74
2022/02/20 04:58:01;;;;;;;28.42;12.40;;;;;;;2.78;100.00;100825.53;5074242;28;20052;-74
2022/02/20 05:00:26;;;;;;;25.52;11.43;;;;;;;2.76;100.00;100833.31;5074320;28;20036;-75
2022/02/20 05:02:51;;;;;;;30.30;12.45;;;;;;;2.74;100.00;100829.78;5073933;28;20030;-74
2022/02/20 05:05:17;;;;;;;27.85;11.68;;;;;;;2.77;100.00;100837.72;5074634;28;20016;-74
2022/02/20 05:07:42;;;;;;;31.83;12.73;;;;;;;2.71;100.00;100833.97;5074277;28;20425;-74
2022/02/20 05:10:08;;;;;;;33.40;12.85;;;;;;;2.72;100.00;100823.63;5074510;28;20027;-73
2022/02/20 05:12:33;;;;;;;31.55;13.05;;;;;;;2.74;100.00;100811.50;5074522;28;20370;-74
2022/02/20 05:14:59;;;;;;;30.30;11.57;;;;;;;2.82;100.00;100808.28;5073597;28;20032;-75
2022/02/20 05:17:24;;;;;;;28.95;11.65;;;;;;;2.85;100.00;100800.56;5074100;28;20021;-74
2022/02/20 05:19:49;;;;;;;30.67;12.02;;;;;;;2.92;100.00;100797.31;5073926;28;20078;-77
2022/02/20 05:22:14;;;;;;;30.77;11.82;;;;;;;2.86;100.00;100789.28;5073772;28;20016;-74
2022/02/20 05:24:40;;;;;;;32.88;11.68;;;;;;;3.01;100.00;100786.31;5073414;28;20036;-74
2022/02/20 05:27:05;;;;;;;32.28;11.55;;;;;;;2.96;100.00;100780.94;5073848;28;20094;-74
2022/02/20 05:29:31;;;;;;;33.33;12.07;;;;;;;3.05;100.00;100773.38;5073421;28;20060;-74
2022/02/20 05:31:56;;;;;;;36.05;11.90;;;;;;;3.05;100.00;100762.06;5073803;28;20016;-74
2022/02/20 05:34:21;;;;;;;36.13;12.88;;;;;;;3.07;100.00;100748.22;5073738;28;20024;-73
2022/02/20 05:36:47;;;;;;;36.70;12.15;;;;;;;3.09;100.00;100735.22;5073267;28;20491;-74
2022/02/20 05:39:12;;;;;;;33.35;11.73;;;;;;;3.10;100.00;100727.44;5073413;28;20040;-73
2022/02/20 05:41:37;;;;;;;36.88;12.27;;;;;;;3.17;100.00;100709.34;5073237;28;20087;-74
2022/02/20 05:44:03;;;;;;;40.13;12.80;;;;;;;3.25;100.00;100710.47;5073488;28;20031;-74
2022/02/20 05:46:29;;;;;;;38.00;12.93;;;;;;;3.25;100.00;100687.84;5073444;28;20025;-74
2022/02/20 05:48:54;;;;;;;38.28;12.30;;;;;;;3.31;100.00;100677.56;5073652;28;20032;-74
2022/02/20 05:51:20;;;;;;;37.55;11.80;;;;;;;3.38;100.00;100668.22;5073583;28;20024;-76
2022/02/20 05:53:45;;;;;;;42.67;11.32;;;;;;;3.48;100.00;100667.66;5072876;28;20025;-74
2022/02/20 05:56:10;;;;;;;40.70;11.70;;;;;;;3.51;100.00;100658.13;5072780;28;20024;-73
2022/02/20 05:58:36;;;;;;;38.03;10.68;;;;;;;3.63;100.00;100656.75;5071646;28;20111;-73
2022/02/20 06:01:01;;;;;;;40.40;11.02;;;;;;;3.70;100.00;100649.09;5072848;28;20039;-74
2022/02/20 06:03:27;;;;;;;42.80;10.82;;;;;;;3.78;100.00;100645.84;5073001;28;20538;-74
2022/02/20 06:05:52;;;;;;;37.88;9.82;;;;;;;3.87;100.00;100644.34;5072661;28;20021;-75
2022/02/20 06:08:18;;;;;;;40.13;10.07;;;;;;;3.92;100.00;100637.53;5073423;28;20070;-74
2022/02/20 06:10:43;;;;;;;40.70;9.55;;;;;;;4.01;100.00;100635.16;5072782;28;20403;-74
2022/02/20 06:13:08;;;;;;;37.85;9.55;;;;;;;4.09;100.00;100633.66;5073008;28;20035;-74
2022/02/20 06:15:34;;;;;;;43.90;9.95;;;;;;;4.13;100.00;100634.63;5072727;28;20048;-75
2022/02/20 06:17:59;;;;;;;41.25;9.77;;;;;;;4.28;100.00;100641.97;5073204;28;20048;-74
2022/02/20 06:20:25;;;;;;;43.63;9.60;;;;;;;4.35;100.00;100629.13;5073262;28;20433;-74
2022/02/20 06:22:53;;;;;;;42.65;9.23;;;;;;;4.46;100.00;100626.78;5071476;28;20086;-74
2022/02/20 06:25:18;;;;;;;39.25;9.10;;;;;;;4.65;100.00;100625.50;5072607;28;20025;-74
2022/02/20 06:27:43;;;;;;;46.97;9.90;;;;;;;4.74;100.00;100631.81;5073092;28;20535;-74
2022/02/20 06:30:09;;;;;;;41.67;8.68;;;;;;;4.88;100.00;100623.44;5071817;28;20028;-74
2022/02/20 06:32:34;;;;;;;42.90;8.90;;;;;;;5.01;100.00;100634.19;5072711;28;20442;-77
2022/02/20 06:35:00;;;;;;;40.25;8.50;;;;;;;5.04;100.00;100636.91;5072470;28;20078;-77
2022/02/20 06:37:25;;;;;;;40.90;9.32;;;;;;;5.07;100.00;100637.88;5072381;28;20027;-74
2022/02/20 06:39:50;;;;;;;42.45;9.25;;;;;;;5.14;100.00;100636.28;5072897;28;20438;-74
2022/02/20 06:42:17;;;;;;;42.85;8.98;;;;;;;5.22;100.00;100639.06;5072182;28;20064;-77
2022/02/20 06:44:43;;;;;;;38.88;8.57;;;;;;;5.30;100.00;100615.66;5071871;28;21360;-77
2022/02/20 06:47:08;;;;;;;43.60;9.15;;;;;;;5.35;100.00;100617.53;5072615;28;20025;-77
2022/02/20 06:49:33;;;;;;;36.78;8.75;;;;;;;5.42;100.00;100621.19;5070985;28;20025;-77
2022/02/20 06:51:59;;;;;;;36.45;9.13;;;;;;;5.54;100.00;100642.41;5072117;28;20035;-75
2022/02/20 06:54:27;;;;;;;37.40;8.30;;;;;;;5.66;100.00;100622.53;5072154;28;20116;-76
2022/02/20 06:56:56;;;;;;;35.95;8.45;;;;;;;5.76;100.00;100614.00;5071906;28;20056;-74
2022/02/20 06:59:23;;;;;;;39.40;9.20;;;;;;;5.79;100.00;100623.69;5069906;28;20028;-78
2022/02/20 07:01:48;;;;;;;31.40;8.50;;;;;;;5.92;100.00;100634.44;5069353;28;20059;-75
2022/02/20 07:04:15;;;;;;;32.55;8.02;;;;;;;5.94;100.00;100627.50;5070825;28;20111;-76
2022/02/20 07:06:42;;;;;;;33.65;8.18;;;;;;;6.08;100.00;100611.16;5069374;28;20017;-76
2022/02/20 07:09:09;;;;;;;33.65;8.18;;;;;;;6.15;100.00;100620.94;5070912;28;20085;-73
2022/02/20 07:11:36;;;;;;;34.65;7.93;;;;;;;6.21;100.00;100621.03;5071342;28;20044;-77
2022/02/20 07:14:01;;;;;;;30.20;7.25;;;;;;;6.24;100.00;100610.59;5069695;28;20051;-75
2022/02/20 07:16:26;;;;;;;31.52;7.45;;;;;;;6.32;100.00;100625.59;5071097;28;20024;-74
2022/02/20 07:18:53;;;;;;;28.55;7.55;;;;;;;6.37;100.00;100634.47;5071250;28;20460;-75
2022/02/20 07:21:18;;;;;;;31.95;7.90;;;;;;;6.39;100.00;100632.72;5071245;28;20028;-74
2022/02/20 07:23:44;;;;;;;27.67;7.75;;;;;;;6.46;100.00;100634.59;5070696;28;20211;-77
2022/02/20 07:26:09;;;;;;;32.75;8.23;;;;;;;6.47;100.00;100628.50;5070328;28;20459;-77
2022/02/20 07:28:34;;;;;;;29.77;8.93;;;;;;;6.49;100.00;100629.41;5071078;28;20024;-76
2022/02/20 07:31:00;;;;;;;32.97;8.77;;;;;;;6.51;100.00;100630.34;5070067;28;20200;-74
2022/02/20 07:33:25;;;;;;;28.55;8.88;;;;;;;6.58;100.00;100623.44;5070893;28;20052;-75
2022/02/20 07:35:50;;;;;;;29.55;9.02;;;;;;;6.60;100.00;100643.63;5070504;28;20094;-76
2022/02/20 07:38:15;;;;;;;28.48;7.80;;;;;;;6.60;100.00;100641.00;5070949;28;20078;-75
2022/02/20 07:40:41;;;;;;;30.17;9.27;;;;;;;6.71;100.00;100600.88;5068928;28;20044;-75
2022/02/20 07:43:06;;;;;;;28.60;9.00;;;;;;;6.69;100.00;100621.00;5071654;28;20103;-76
2022/02/20 07:45:32;;;;;;;29.25;8.85;;;;;;;6.71;100.00;100625.41;5070195;28;20021;-79
2022/02/20 07:47:59;;;;;;;29.33;8.95;;;;;;;6.68;100.00;100625.34;5071185;28;20032;-77
2022/02/20 07:50:28;;;;;;;31.33;8.93;;;;;;;6.72;100.00;100626.31;5068138;28;20056;-78
2022/02/20 07:52:54;;;;;;;27.70;8.50;;;;;;;6.76;100.00;100609.75;5070673;28;20058;-78
2022/02/20 07:55:20;;;;;;;30.38;8.73;;;;;;;6.73;100.00;100634.22;5069352;28;20456;-77
2022/02/20 07:57:46;;;;;;;28.27;8.57;;;;;;;6.77;100.00;100608.84;5070625;28;20115;-76
2022/02/20 08:00:14;;;;;;;26.27;7.75;;;;;;;6.77;100.00;100604.50;5070470;28;20033;-76
2022/02/20 08:02:40;;;;;;;27.88;7.55;;;;;;;6.77;100.00;100600.97;5070277;28;20040;-77
2022/02/20 08:05:06;;;;;;;26.50;7.53;;;;;;;6.82;100.00;100604.56;5070411;28;20126;-78
2022/02/20 08:07:32;;;;;;;25.88;7.18;;;;;;;6.83;100.00;100608.06;5070573;28;20082;-76
2022/02/20 08:09:57;;;;;;;23.95;7.05;;;;;;;6.86;100.00;100602.88;5070034;28;20029;-78
2022/02/20 08:12:22;;;;;;;23.42;6.70;;;;;;;6.87;100.00;100600.25;5070707;28;20017;-77
2022/02/20 08:14:48;;;;;;;30.83;7.32;;;;;;;6.93;100.00;100603.00;5070121;28;20111;-77
2022/02/20 08:17:13;;;;;;;23.70;6.80;;;;;;;6.96;100.00;100610.03;5070129;28;21140;-78
2022/02/20 08:19:39;;;;;;;22.85;6.40;;;;;;;7.00;100.00;100622.34;5070360;28;20033;-77
2022/02/20 08:22:04;;;;;;;23.35;6.68;;;;;;;6.99;100.00;100623.25;5070408;28;20070;-78
2022/02/20 08:24:29;;;;;;;23.67;6.75;;;;;;;7.01;100.00;100613.63;5070029;28;20040;-77
2022/02/20 08:26:55;;;;;;;26.70;6.20;;;;;;;7.06;100.00;100608.44;5069640;28;20016;-76
2022/02/20 08:29:21;;;;;;;23.55;6.82;;;;;;;7.08;100.00;100614.63;5070338;28;20072;-77
2022/02/20 08:31:48;;;;;;;23.23;6.55;;;;;;;7.11;100.00;100589.25;5070540;28;20047;-77
2022/02/20 08:34:14;;;;;;;23.85;6.38;;;;;;;7.13;100.00;100612.91;5070650;28;20028;-77
2022/02/20 08:36:40;;;;;;;22.58;6.78;;;;;;;7.17;100.00;100592.84;5069572;28;20398;-77
2022/02/20 08:39:05;;;;;;;22.02;6.75;;;;;;;7.17;100.00;100608.59;5069962;28;20391;-77
2022/02/20 08:41:30;;;;;;;24.33;6.82;;;;;;;7.18;100.00;100589.31;5068859;28;20224;-77
2022/02/20 08:43:56;;;;;;;23.40;7.18;;;;;;;7.21;100.00;100603.41;5070351;28;20057;-77
2022/02/20 08:46:21;;;;;;;24.30;7.32;;;;;;;7.25;100.00;100583.28;5070310;28;20040;-77
2022/02/20 08:48:46;;;;;;;22.60;6.88;;;;;;;7.24;100.00;100590.31;5069425;28;20036;-77
2022/02/20 08:51:12;;;;;;;25.00;7.50;;;;;;;7.28;100.00;100607.91;5070445;28;20032;-77
2022/02/20 08:53:38;;;;;;;24.33;7.20;;;;;;;7.29;100.00;100612.28;5070460;28;20375;-77
2022/02/20 08:56:06;;;;;;;23.77;6.93;;;;;;;7.33;100.00;100621.09;5069623;28;20036;-77
2022/02/20 08:58:31;;;;;;;25.58;7.53;;;;;;;7.40;100.00;100601.03;5069892;28;20224;-76
2022/02/20 09:00:57;;;;;;;25.73;7.65;;;;;;;7.40;100.00;100601.91;5070530;28;20047;-77
2022/02/20 09:03:22;;;;;;;27.08;7.70;;;;;;;7.46;100.00;100586.22;5066856;28;20099;-77
2022/02/20 09:05:47;;;;;;;25.30;7.47;;;;;;;7.48;100.00;100575.72;5069606;28;20036;-76
2022/02/20 09:08:13;;;;;;;25.70;7.22;;;;;;;7.53;100.00;100557.34;5069863;28;20032;-77
2022/02/20 09:10:40;;;;;;;25.90;7.80;;;;;;;7.54;100.00;100564.38;5069648;28;20017;-77
2022/02/20 09:13:05;;;;;;;28.90;8.63;;;;;;;7.60;100.00;100573.25;5069597;28;20032;-77
2022/02/20 09:15:31;;;;;;;26.42;7.85;;;;;;;7.65;100.00;100568.91;5069387;28;20089;-78
2022/02/20 09:17:56;;;;;;;26.88;7.97;;;;;;;7.65;100.00;100563.66;5070097;28;20020;-78
2022/02/20 09:20:21;;;;;;;28.70;8.45;;;;;;;7.72;100.00;100566.34;5070085;28;20376;-78
2022/02/20 09:22:47;;;;;;;28.85;8.55;;;;;;;7.74;100.00;100585.69;5070121;28;20041;-78
2022/02/20 09:25:12;;;;;;;30.90;8.45;;;;;;;7.77;100.00;100562.03;5069343;28;20025;-75
2022/02/20 09:27:39;;;;;;;29.52;7.78;;;;;;;7.79;100.00;100558.56;5070324;28;20024;-78
2022/02/20 09:30:04;;;;;;;27.25;8.23;;;;;;;7.83;100.00;100565.63;5069751;28;20033;-78
2022/02/20 09:32:30;;;;;;;30.92;8.10;;;;;;;7.86;100.00;100577.91;5070839;28;20390;-77
2022/02/20 09:34:55;;;;;;;26.55;7.78;;;;;;;7.92;100.00;100588.53;5073691;28;20017;-78
2022/02/20 09:37:20;;;;;;;28.40;7.13;;;;;;;7.92;100.00;100579.72;5073093;28;20399;-78
2022/02/20 09:39:46;;;;;;;29.45;8.05;;;;;;;7.96;100.00;100577.16;5073040;28;20035;-78
2022/02/20 09:42:14;;;;;;;28.55;7.95;;;;;;;8.01;100.00;100585.13;5072943;28;20458;-78
2022/02/20 09:44:39;;;;;;;28.02;7.60;;;;;;;8.05;100.00;100565.81;5072963;28;20064;-78
2022/02/20 09:47:05;;;;;;;28.40;6.70;;;;;;;8.08;100.00;100554.44;5072101;28;20118;-77
2022/02/20 09:49:31;;;;;;;28.70;6.90;;;;;;;8.09;100.00;100562.38;5073778;28;20029;-78
2022/02/20 09:51:57;;;;;;;27.77;6.78;;;;;;;8.22;100.00;100537.03;5073352;28;20509;-78
2022/02/20 09:54:22;;;;;;;26.42;6.00;;;;;;;8.25;100.00;100550.22;5073114;28;20352;-78
2022/02/20 09:56:48;;;;;;;27.95;6.50;;;;;;;8.26;100.00;100541.47;5070556;28;20516;-76
2022/02/20 09:59:13;;;;;;;30.58;6.75;;;;;;;8.30;100.00;100561.69;5072687;28;20048;-76
2022/02/20 10:02:03;;;;;;;28.95;6.13;;;;;;;8.41;100.00;100543.34;5073028;28;20028;-76
2022/02/20 10:04:46;;;;;;;30.27;6.78;;;;;;;8.46;100.00;100561.84;5072508;28;20475;-76
2022/02/20 10:07:28;;;;;;;28.25;7.25;;;;;;;8.51;100.00;100560.16;5072727;28;20411;-76
2022/02/20 10:09:54;;;;;;;27.05;6.63;;;;;;;8.45;100.00;100550.44;5071773;28;20364;-76
2022/02/20 10:12:22;;;;;;;27.85;6.70;;;;;;;8.43;100.00;100553.91;5072872;28;20029;-76
2022/02/20 10:14:48;;;;;;;29.52;6.07;;;;;;;8.46;100.00;100535.50;5072318;28;20108;-75
2022/02/20 10:17:19;;;;;;;28.33;6.82;;;;;;;8.48;100.00;100554.88;5072447;28;20120;-78
2022/02/20 10:20:01;;;;;;;29.83;6.60;;;;;;;8.53;100.00;100511.88;5071334;28;20024;-76
2022/02/20 10:22:29;;;;;;;27.83;6.43;;;;;;;8.50;100.00;100545.22;5071885;28;20028;-76
2022/02/20 10:25:03;;;;;;;32.25;7.22;;;;;;;8.54;100.00;100512.75;5071009;28;20107;-77
2022/02/20 10:27:29;;;;;;;30.95;6.93;;;;;;;8.55;100.00;100522.44;5072338;28;20035;-78
2022/02/20 10:30:13;;;;;;;30.88;6.70;;;;;;;8.62;100.00;100512.78;5072296;28;20024;-76
2022/02/20 10:32:39;;;;;;;30.77;6.88;;;;;;;8.55;100.00;100520.66;5070352;28;20476;-76
2022/02/20 10:35:14;;;;;;;29.48;6.70;;;;;;;8.54;100.00;100537.34;5071863;28;20039;-75
2022/02/20 10:37:40;;;;;;;27.70;6.15;;;;;;;8.54;100.00;100539.09;5072582;28;20074;-76
2022/02/20 10:40:25;;;;;;;28.95;6.50;;;;;;;8.57;100.00;100543.50;5072180;28;20033;-79
2022/02/20 10:42:56;;;;;;;29.45;7.13;;;;;;;8.63;100.00;100554.09;5071162;28;20068;-76
2022/02/20 10:45:24;;;;;;;31.83;7.25;;;;;;;8.64;100.00;100543.56;5071702;28;20137;-76
2022/02/20 10:47:50;;;;;;;30.25;6.72;;;;;;;8.52;100.00;100535.59;5071711;28;20028;-76
2022/02/20 10:50:26;;;;;;;33.53;7.10;;;;;;;8.44;100.00;100537.22;5071687;28;20554;-75
2022/02/20 10:53:14;;;;;;;30.13;7.05;;;;;;;8.38;100.00;100544.19;5071714;28;20510;-76
2022/02/20 10:55:42;;;;;;;31.23;7.70;;;;;;;8.33;100.00;100545.91;5071418;28;20051;-76
2022/02/20 10:58:12;;;;;;;38.17;8.07;;;;;;;8.31;100.00;100554.66;5071727;28;20032;-76
2022/02/20 11:00:52;;;;;;;33.08;7.63;;;;;;;8.29;100.00;100554.66;5070690;28;20044;-76
2022/02/20 11:03:23;;;;;;;30.50;7.70;;;;;;;8.27;100.00;100543.25;5070874;28;20025;-76
2022/02/20 11:05:49;;;;;;;32.05;7.32;;;;;;;8.27;100.00;100527.44;5070981;28;20055;-75
2022/02/20 11:08:17;;;;;;;33.42;8.13;;;;;;;8.24;100.00;100545.81;5070750;28;20032;-75
2022/02/20 11:10:43;;;;;;;32.67;8.20;;;;;;;8.20;100.00;100546.69;5070438;28;20036;-76